Time;durP1;ratioP1;P1;durP2;ratioP2;P2;SDS_P1;SDS_P2;PMS_P1;PMS_P2;Temp;Humidity;BMP_temperature;BMP_pressure;BME280_temperature;BME280_humidity;BME280_pressure;Samples;Min_cycle;Max_cycle;Signal;HPM_P1;HPM_P2
2023/02/27 00:00:55;;;;;;;;;7.33;5.00;;;;;2.98;75.28;101673.91;4948419;28;45445;-82
2023/02/27 00:03:21;;;;;;;;;4.67;4.67;;;;;3.04;75.97;101685.63;4945412;28;45442;-82
2023/02/27 00:05:47;;;;;;;;;4.00;2.00;;;;;3.03;75.64;101683.78;4962314;28;46784;-82
2023/02/27 00:08:13;;;;;;;;;4.67;4.67;;;;;3.00;75.81;101680.16;4944892;28;45355;-81
2023/02/27 00:10:39;;;;;;;;;6.67;6.67;;;;;2.95;75.61;101665.84;4948327;28;45390;-82
2023/02/27 00:13:04;;;;;;;;;5.00;5.00;;;;;2.95;77.93;101676.38;4950785;28;45420;-81
2023/02/27 00:15:31;;;;;;;;;9.00;8.00;;;;;2.89;77.15;101668.13;4948839;28;46053;-81
2023/02/27 00:17:59;;;;;;;;;8.00;5.00;;;;;2.94;78.07;101684.16;4950195;28;45301;-81
2023/02/27 00:20:26;;;;;;;;;8.00;6.33;;;;;2.92;77.36;101676.16;4963916;28;45408;-83
2023/02/27 00:22:51;;;;;;;;;4.33;4.33;;;;;2.96;77.04;101677.28;4947898;28;45560;-82
2023/02/27 00:25:18;;;;;;;;;6.33;6.33;;;;;2.91;78.14;101663.88;4947281;28;46739;-82
2023/02/27 00:27:43;;;;;;;;;5.33;4.33;;;;;2.86;77.90;101673.19;4950146;28;44931;-81
2023/02/27 00:30:12;;;;;;;;;7.00;7.00;;;;;2.92;78.55;101677.91;4950163;28;45433;-81
2023/02/27 00:32:39;;;;;;;;;9.00;5.00;;;;;2.90;77.91;101682.16;4948320;28;45348;-81
2023/02/27 00:35:06;;;;;;;;;7.67;6.67;;;;;2.83;79.41;101675.63;4945528;28;46998;-83
2023/02/27 00:37:33;;;;;;;;;4.33;4.33;;;;;2.83;79.63;101674.72;4946884;28;45568;-83
2023/02/27 00:39:59;;;;;;;;;5.00;5.00;;;;;2.80;78.98;101667.56;4949453;28;45434;-82
2023/02/27 00:42:24;;;;;;;;;8.67;6.33;;;;;2.76;79.72;101661.19;4949611;28;44982;-83
2023/02/27 00:44:50;;;;;;;;;1.00;1.00;;;;;2.79;79.82;101665.75;4965588;28;46985;-81
2023/02/27 00:47:15;;;;;;;;;4.33;4.33;;;;;2.71;80.44;101670.53;4951331;28;45436;-82
2023/02/27 00:53:02;;;;;;;;;8.67;5.67;;;;;2.69;80.09;101668.66;4951757;28;45463;-81
2023/02/27 00:55:28;;;;;;;;;5.00;5.00;;;;;2.71;79.50;101669.66;4949838;28;45800;-82
2023/02/27 00:57:56;;;;;;;;;5.00;5.00;;;;;2.70;81.16;101666.09;4964979;28;45418;-84
2023/02/27 01:00:21;;;;;;;;;9.67;9.67;;;;;2.68;81.92;101687.81;4952478;28;45657;-80
2023/02/27 01:02:48;;;;;;;;;5.00;5.00;;;;;2.70;81.59;101678.31;4966178;28;44890;-83
2023/02/27 01:05:14;;;;;;;;;6.67;6.33;;;;;2.56;82.12;101665.25;4947113;28;47488;-82
2023/02/27 01:07:39;;;;;;;;;8.33;8.00;;;;;2.64;81.45;101688.44;4958791;28;45936;-82
2023/02/27 01:10:06;;;;;;;;;5.00;5.00;;;;;2.63;82.03;101678.78;4967965;28;45477;-81
2023/02/27 01:12:32;;;;;;;;;8.33;4.00;;;;;2.54;82.80;101673.84;4968807;28;45379;-83
2023/02/27 01:15:05;;;;;;;;;7.33;5.33;;;;;2.64;82.65;101684.09;4966735;28;46737;-82
2023/02/27 01:17:31;;;;;;;;;8.00;8.00;;;;;2.57;83.16;101681.94;4966531;28;45471;-82
2023/02/27 01:19:57;;;;;;;;;10.33;8.00;;;;;2.51;84.05;101686.81;4964438;28;45533;-81
2023/02/27 01:22:23;;;;;;;;;8.00;7.00;;;;;2.49;84.25;101696.31;4967471;28;45411;-81
2023/02/27 01:24:48;;;;;;;;;8.00;8.00;;;;;2.38;86.46;101672.00;4967470;28;45927;-82
2023/02/27 01:27:16;;;;;;;;;8.67;7.33;;;;;2.52;85.67;101678.09;4967764;28;45400;-83
2023/02/27 01:29:41;;;;;;;;;7.67;7.67;;;;;2.45;86.26;101679.44;4968374;28;45472;-82
2023/02/27 01:32:07;;;;;;;;;10.00;7.00;;;;;2.46;85.08;101672.47;4970711;28;45326;-81
2023/02/27 01:34:32;;;;;;;;;6.00;6.00;;;;;2.44;85.81;101681.97;4968973;28;45324;-82
2023/02/27 01:36:58;;;;;;;;;8.67;7.00;;;;;2.37;85.22;101673.72;4965777;28;45478;-82
2023/02/27 01:39:25;;;;;;;;;5.67;5.00;;;;;2.46;85.74;101683.88;4981167;28;45336;-81
2023/02/27 01:41:51;;;;;;;;;4.67;4.67;;;;;2.38;85.86;101685.13;4966378;28;45525;-83
2023/02/27 01:44:16;;;;;;;;;5.00;5.00;;;;;2.34;85.66;101673.53;4958914;28;46131;-82
2023/02/27 01:46:42;;;;;;;;;5.00;5.00;;;;;2.34;85.35;101670.00;4947025;28;45414;-82
2023/02/27 01:49:26;;;;;;;;;7.33;7.33;;;;;2.38;84.90;101669.38;4942939;28;45497;-81
2023/02/27 01:55:14;;;;;;;;;7.67;6.67;;;;;2.35;87.49;101679.69;4948730;28;45740;-81
2023/02/27 01:57:43;;;;;;;;;7.33;7.33;;;;;2.27;87.15;101650.34;4945060;28;45769;-82
2023/02/27 02:00:09;;;;;;;;;6.33;6.33;;;;;2.35;87.50;101672.72;4945100;28;45376;-82
2023/02/27 02:02:46;;;;;;;;;6.33;6.33;;;;;2.39;87.13;101677.34;4948252;28;45376;-81
2023/02/27 02:05:13;;;;;;;;;7.33;5.00;;;;;2.31;88.16;101654.97;4946901;28;45765;-82
2023/02/27 02:07:45;;;;;;;;;8.00;8.00;;;;;2.30;87.61;101644.38;4945422;28;46325;-82
2023/02/27 02:10:14;;;;;;;;;8.67;6.33;;;;;2.35;85.80;101658.69;4944379;28;45421;-81
2023/02/27 02:12:40;;;;;;;;;5.00;5.00;;;;;2.33;86.24;101649.81;4946944;28;45507;-82
2023/02/27 02:15:06;;;;;;;;;7.00;7.00;;;;;2.27;87.14;101649.44;4947379;28;45919;-81
2023/02/27 02:17:42;;;;;;;;;7.00;6.00;;;;;2.30;86.76;101639.13;4947419;28;45524;-81
2023/02/27 02:20:17;;;;;;;;;5.00;3.33;;;;;2.36;87.14;101644.75;4946236;28;45443;-82
2023/02/27 02:22:51;;;;;;;;;7.67;7.67;;;;;2.33;87.28;101647.19;4949244;28;44744;-82
2023/02/27 02:25:54;;;;;;;;;11.00;5.00;;;;;2.35;86.78;101642.94;4947458;28;47822;-84
2023/02/27 02:28:19;;;;;;;;;8.00;8.00;;;;;2.27;86.66;101644.19;4947441;28;45500;-83
2023/02/27 02:30:58;;;;;;;;;5.67;5.00;;;;;2.30;86.51;101640.03;4946827;28;45535;-80
2023/02/27 02:33:51;;;;;;;;;5.00;5.00;;;;;2.32;86.33;101653.22;4945653;28;45412;-81
2023/02/27 02:36:50;;;;;;;;;5.33;5.33;;;;;2.29;86.66;101653.97;4947587;28;45416;-82
2023/02/27 02:39:19;;;;;;;;;7.00;7.00;;;;;2.28;87.10;101644.25;4944794;28;45406;-81
2023/02/27 02:42:07;;;;;;;;;8.00;8.00;;;;;2.19;87.61;101626.22;4945045;28;45451;-80
2023/02/27 02:44:45;;;;;;;;;6.33;6.33;;;;;2.22;86.03;101641.25;4945621;28;45559;-82
2023/02/27 02:47:48;;;;;;;;;6.00;5.00;;;;;2.27;86.72;101655.59;4946300;28;45321;-82
2023/02/27 02:50:14;;;;;;;;;6.33;6.33;;;;;2.18;86.47;101649.75;4945375;28;45362;-82
2023/02/27 02:52:57;;;;;;;;;7.00;7.00;;;;;2.18;88.34;101648.06;4945774;28;44785;-82
2023/02/27 02:55:34;;;;;;;;;5.00;4.00;;;;;2.17;87.61;101640.09;4945516;28;45469;-83
2023/02/27 02:58:11;;;;;;;;;5.33;4.67;;;;;2.13;87.13;101636.34;4945976;28;46370;-83
2023/02/27 03:00:51;;;;;;;;;8.33;5.00;;;;;2.16;86.83;101644.44;4947288;28;45387;-82
2023/02/27 03:03:55;;;;;;;;;9.00;7.00;;;;;2.17;86.30;101642.72;4946586;28;45472;-81
2023/02/27 03:06:29;;;;;;;;;4.00;4.00;;;;;2.14;86.87;101635.56;4938173;28;44997;-82
2023/02/27 03:08:58;;;;;;;;;1.00;1.00;;;;;2.15;86.41;101639.06;4945261;28;45461;-81
2023/02/27 03:11:31;;;;;;;;;9.00;8.67;;;;;2.15;86.66;101642.59;4952623;28;45507;-82
2023/02/27 03:14:06;;;;;;;;;6.33;6.33;;;;;2.15;87.35;101647.84;4980855;28;45495;-81
2023/02/27 03:16:42;;;;;;;;;7.67;7.00;;;;;2.09;86.55;101636.97;4965573;28;45526;-81
2023/02/27 03:19:23;;;;;;;;;11.33;8.00;;;;;2.15;87.15;101642.59;4964268;28;47637;-82
2023/02/27 03:22:08;;;;;;;;;6.33;6.33;;;;;2.09;86.51;101642.22;4963645;28;45604;-81
2023/02/27 03:24:46;;;;;;;;;4.67;4.67;;;;;2.10;88.04;101641.44;4966458;28;45652;-81
2023/02/27 03:27:15;;;;;;;;;8.33;5.00;;;;;2.11;87.45;101655.44;4965586;28;45508;-81
2023/02/27 03:29:52;;;;;;;;;7.00;4.33;;;;;2.11;87.51;101653.72;4966241;28;47100;-80
2023/02/27 03:32:28;;;;;;;;;5.00;5.00;;;;;2.09;87.03;101654.44;4964576;28;45118;-80
2023/02/27 03:34:54;;;;;;;;;7.67;7.67;;;;;2.00;87.02;101649.53;4962310;28;44778;-81
2023/02/27 03:37:34;;;;;;;;;8.00;5.00;;;;;2.10;86.71;101645.75;4966879;28;45555;-80
2023/02/27 03:40:05;;;;;;;;;6.33;4.00;;;;;2.02;88.15;101641.72;4965903;28;47092;-81
2023/02/27 03:42:36;;;;;;;;;7.00;7.00;;;;;2.03;87.40;101656.69;4962868;28;45514;-82
2023/02/27 03:45:13;;;;;;;;;7.00;7.00;;;;;2.02;88.14;101654.84;4964793;28;45444;-80
2023/02/27 03:47:38;;;;;;;;;2.00;2.00;;;;;1.99;87.30;101659.09;4966199;28;45411;-81
2023/02/27 03:50:04;;;;;;;;;7.33;5.00;;;;;2.03;87.32;101660.19;4980946;28;47555;-82
2023/02/27 03:52:31;;;;;;;;;8.00;5.00;;;;;2.03;86.56;101662.81;4963388;28;45492;-82
2023/02/27 03:55:04;;;;;;;;;8.33;8.33;;;;;2.02;87.54;101650.53;4979129;28;45786;-82
2023/02/27 03:57:31;;;;;;;;;4.00;4.00;;;;;2.02;87.04;101663.66;4965773;28;45612;-81
2023/02/27 03:59:57;;;;;;;;;0.33;0.33;;;;;1.99;87.64;101668.69;4967698;28;45466;-83
2023/02/27 04:02:23;;;;;;;;;7.67;7.67;;;;;2.02;87.37;101662.72;4965584;28;45428;-81
2023/02/27 04:04:48;;;;;;;;;1.00;1.00;;;;;1.98;87.66;101664.28;4964947;28;45563;-81
2023/02/27 04:07:25;;;;;;;;;4.67;4.67;;;;;2.09;86.33;101680.69;4965050;28;45337;-82
2023/02/27 04:10:09;;;;;;;;;7.00;7.00;;;;;2.09;86.73;101678.94;4964349;28;47710;-82
2023/02/27 04:12:49;;;;;;;;;0.00;0.00;;;;;2.02;86.76;101654.84;4964489;28;45431;-83
2023/02/27 04:15:39;;;;;;;;;7.00;7.00;;;;;2.09;86.31;101665.84;4967103;28;45604;-82
2023/02/27 04:18:23;;;;;;;;;5.00;4.00;;;;;2.06;87.08;101660.41;4965667;28;45412;-81
2023/02/27 04:21:28;;;;;;;;;7.00;4.00;;;;;2.09;86.42;101671.09;4962659;28;45706;-82
2023/02/27 04:24:11;;;;;;;;;5.00;5.00;;;;;2.07;87.14;101679.69;4963776;28;45305;-82
2023/02/27 04:26:46;;;;;;;;;5.00;5.00;;;;;2.02;87.60;101675.84;4965268;28;45458;-81
2023/02/27 04:29:57;;;;;;;;;5.00;4.00;;;;;2.03;87.38;101681.19;4980134;28;44957;-82
2023/02/27 04:32:56;;;;;;;;;8.00;5.67;;;;;2.05;87.59;101692.69;4963527;28;47138;-82
2023/02/27 04:35:44;;;;;;;;;4.00;4.00;;;;;1.96;88.43;101671.09;4965420;28;45452;-84
2023/02/27 04:38:24;;;;;;;;;4.67;4.67;;;;;1.99;87.66;101684.44;4965464;28;44773;-82
2023/02/27 04:41:02;;;;;;;;;5.00;5.00;;;;;1.97;88.81;101688.66;4962267;28;45351;-82
2023/02/27 04:43:30;;;;;;;;;8.33;5.67;;;;;1.87;88.84;101679.31;4963569;28;45531;-81
2023/02/27 04:46:00;;;;;;;;;8.00;8.00;;;;;1.88;90.00;101674.94;4963653;28;45352;-82
2023/02/27 04:48:33;;;;;;;;;7.00;7.00;;;;;1.92;88.88;101693.63;4963603;28;45440;-83
2023/02/27 04:51:11;;;;;;;;;7.33;7.00;;;;;1.84;89.64;101683.44;4963107;28;45357;-81
2023/02/27 04:53:53;;;;;;;;;8.67;6.33;;;;;1.93;89.70;101699.78;4963766;28;45518;-82
2023/02/27 04:56:38;;;;;;;;;8.67;7.33;;;;;1.88;90.73;101691.63;4964387;28;45571;-82
2023/02/27 04:59:21;;;;;;;;;5.00;5.00;;;;;1.86;91.69;101705.41;4964793;28;45373;-81
2023/02/27 05:02:00;;;;;;;;;8.00;5.67;;;;;1.87;90.89;101709.88;4983548;28;45387;-82
2023/02/27 05:04:33;;;;;;;;;7.00;7.00;;;;;1.88;91.53;101711.69;4964730;28;47762;-83
2023/02/27 05:07:00;;;;;;;;;7.00;7.00;;;;;1.80;91.94;101709.47;4965025;28;45520;-83
2023/02/27 05:09:26;;;;;;;;;5.00;5.00;;;;;1.77;92.98;101714.50;4965750;28;44916;-82
2023/02/27 05:12:03;;;;;;;;;7.67;7.67;;;;;1.80;92.10;101709.47;4966753;28;45322;-82
2023/02/27 05:14:32;;;;;;;;;7.33;7.33;;;;;1.75;92.45;101704.75;4964554;28;45365;-82
2023/02/27 05:17:16;;;;;;;;;10.00;5.67;;;;;1.80;93.24;101714.72;4964568;28;45409;-81
2023/02/27 05:19:46;;;;;;;;;7.00;7.00;;;;;1.72;93.84;101704.56;4967528;28;45509;-82
2023/02/27 05:22:36;;;;;;;;;5.67;5.67;;;;;1.75;93.27;101708.25;4966546;28;45345;-82
2023/02/27 05:25:28;;;;;;;;;8.00;6.33;;;;;1.76;93.86;101715.34;4965634;28;46745;-81
2023/02/27 05:28:23;;;;;;;;;5.00;5.00;;;;;1.73;97.31;101715.13;4965926;28;45986;-81
2023/02/27 05:30:48;;;;;;;;;6.33;6.33;;;;;1.67;96.08;101721.69;4966718;28;45825;-82
2023/02/27 05:33:23;;;;;;;;;5.00;5.00;;;;;1.67;95.75;101727.84;4967130;28;44888;-83
2023/02/27 05:36:01;;;;;;;;;10.33;7.67;;;;;1.71;95.90;101714.13;4966794;28;45518;-82
2023/02/27 05:38:39;;;;;;;;;4.33;4.00;;;;;1.69;95.07;101715.72;4965268;28;45461;-82
2023/02/27 05:41:13;;;;;;;;;8.33;7.33;;;;;1.66;96.38;101718.16;4966513;28;44785;-83
2023/02/27 05:43:54;;;;;;;;;8.67;7.33;;;;;1.71;95.55;101721.97;4965716;28;45372;-82
2023/02/27 05:46:36;;;;;;;;;9.00;7.00;;;;;1.68;96.40;101716.56;4965567;28;45452;-83
2023/02/27 05:49:10;;;;;;;;;8.00;8.00;;;;;1.69;98.16;101720.06;4960752;28;44833;-81
2023/02/27 05:51:47;;;;;;;;;8.67;6.33;;;;;1.67;96.56;101719.97;4951305;28;45498;-80
2023/02/27 05:54:29;;;;;;;;;5.67;5.67;;;;;1.60;96.54;101700.31;4949297;28;45547;-82
2023/02/27 05:56:58;;;;;;;;;8.00;4.67;;;;;1.60;98.71;101721.28;4948160;28;45643;-80
2023/02/27 05:59:38;;;;;;;;;8.67;8.67;;;;;1.61;99.15;101727.44;4950843;28;44865;-81
2023/02/27 06:02:04;;;;;;;;;8.00;7.00;;;;;1.56;98.89;101724.50;4948730;28;45626;-82
2023/02/27 06:04:30;;;;;;;;;7.33;5.67;;;;;1.55;100.00;101733.16;4950683;28;45439;-82
2023/02/27 06:06:56;;;;;;;;;7.67;5.00;;;;;1.53;100.00;101728.63;4949610;28;45541;-82
2023/02/27 06:09:22;;;;;;;;;7.00;7.00;;;;;1.55;99.20;101732.28;4947321;28;45813;-81
2023/02/27 06:11:47;;;;;;;;;7.33;5.67;;;;;1.48;100.00;101724.81;4944550;28;45412;-82
2023/02/27 06:14:13;;;;;;;;;5.33;4.33;;;;;1.48;100.00;101722.19;4945146;28;45614;-82
2023/02/27 06:16:38;;;;;;;;;7.00;7.00;;;;;1.49;100.00;101739.72;4946830;28;45511;-82
2023/02/27 06:19:04;;;;;;;;;8.00;7.00;;;;;1.49;100.00;101731.88;4948282;28;45452;-81
2023/02/27 06:21:30;;;;;;;;;10.00;7.00;;;;;1.45;100.00;101735.09;4947223;28;44845;-83
2023/02/27 06:23:56;;;;;;;;;10.67;10.67;;;;;1.40;99.40;101722.59;4947328;28;44943;-83
2023/02/27 06:26:22;;;;;;;;;5.00;5.00;;;;;1.41;100.00;101736.59;4946578;28;46428;-83
2023/02/27 06:32:10;;;;;;;;;7.00;7.00;;;;;1.44;100.00;101743.78;4947447;28;45611;-85
2023/02/27 06:34:35;;;;;;;;;7.00;4.33;;;;;1.44;100.00;101742.06;4962211;28;45555;-83
2023/02/27 06:37:01;;;;;;;;;8.67;8.67;;;;;1.48;99.55;101740.56;4945104;28;46878;-81
2023/02/27 06:39:27;;;;;;;;;7.00;7.00;;;;;1.52;99.30;101746.09;4944541;28;45623;-82
2023/02/27 06:41:54;;;;;;;;;8.00;8.00;;;;;1.50;99.47;101744.19;4944533;28;45299;-81
2023/02/27 06:44:19;;;;;;;;;7.67;5.00;;;;;1.52;99.00;101756.56;4945961;28;44878;-82
2023/02/27 06:46:45;;;;;;;;;8.33;8.33;;;;;1.47;99.56;101754.44;4949211;28;45528;-82
2023/02/27 06:49:10;;;;;;;;;7.67;7.67;;;;;1.49;99.92;101758.06;4947556;28;45448;-81
2023/02/27 06:51:41;;;;;;;;;9.33;5.00;;;;;1.54;99.00;101768.06;4946658;28;45492;-81
2023/02/27 06:54:13;;;;;;;;;8.00;8.00;;;;;1.58;99.29;101774.44;4944177;28;45802;-80
2023/02/27 06:56:38;;;;;;;;;7.33;7.33;;;;;1.40;98.45;101745.28;4949206;28;48106;-83
2023/02/27 06:59:04;;;;;;;;;7.67;7.67;;;;;1.58;97.84;101769.19;4949143;28;45406;-81
2023/02/27 07:01:33;;;;;;;;;5.00;5.00;;;;;1.62;97.89;101784.31;4946455;28;45438;-83
2023/02/27 07:03:59;;;;;;;;;7.67;5.67;;;;;1.63;98.00;101775.63;4953724;28;44877;-81
2023/02/27 07:06:26;;;;;;;;;10.00;7.00;;;;;1.67;97.44;101774.13;4956344;28;46883;-83
2023/02/27 07:08:51;;;;;;;;;7.00;7.00;;;;;1.64;97.06;101766.03;4945970;28;45484;-84
2023/02/27 07:11:17;;;;;;;;;8.00;8.00;;;;;1.70;97.40;101784.84;4943860;28;45482;-82
2023/02/27 07:13:43;;;;;;;;;2.00;2.00;;;;;1.68;97.83;101771.63;4944690;28;45429;-80
2023/02/27 07:16:08;;;;;;;;;4.00;4.00;;;;;1.72;96.55;101788.47;4948371;28;45423;-83
2023/02/27 07:18:34;;;;;;;;;4.00;4.00;;;;;1.75;95.87;101772.91;4950660;28;44826;-82
2023/02/27 07:20:59;;;;;;;;;7.67;6.33;;;;;1.83;95.98;101790.06;4948377;28;45346;-81
2023/02/27 07:23:25;;;;;;;;;10.00;6.33;;;;;1.85;95.16;101783.22;4951139;28;45325;-81
2023/02/27 07:25:50;;;;;;;;;8.00;5.00;;;;;1.94;94.39;101778.59;4946419;28;45659;-83
2023/02/27 07:28:16;;;;;;;;;7.33;7.33;;;;;2.02;94.84;101788.66;4952219;28;45506;-82
2023/02/27 07:30:42;;;;;;;;;8.00;8.00;;;;;2.04;93.74;101795.84;4969359;28;45412;-82
2023/02/27 07:33:08;;;;;;;;;7.00;4.33;;;;;2.05;92.68;101787.16;4968875;28;45478;-83
2023/02/27 07:35:33;;;;;;;;;12.67;8.00;;;;;2.10;92.93;101785.75;4969750;28;46598;-83
2023/02/27 07:37:59;;;;;;;;;8.00;8.00;;;;;2.08;92.86;101778.56;4969188;28;45519;-82
2023/02/27 07:40:24;;;;;;;;;11.00;8.00;;;;;2.17;92.24;101794.91;4965726;28;45497;-81
2023/02/27 07:42:50;;;;;;;;;4.67;4.67;;;;;2.19;92.73;101788.94;4967650;28;45460;-82
2023/02/27 07:45:19;;;;;;;;;5.00;5.00;;;;;2.22;91.61;101792.56;4964448;28;47315;-80
2023/02/27 07:47:45;;;;;;;;;8.00;7.00;;;;;2.24;91.17;101780.47;4966679;28;45710;-82
2023/02/27 07:50:14;;;;;;;;;7.00;7.00;;;;;2.22;89.05;101788.22;4967296;28;45481;-82
2023/02/27 07:52:43;;;;;;;;;7.33;5.67;;;;;2.32;89.56;101781.84;4966581;28;44819;-82
2023/02/27 07:55:13;;;;;;;;;5.00;5.00;;;;;2.49;89.43;101801.34;4971266;28;47118;-82
2023/02/27 07:57:38;;;;;;;;;5.00;5.00;;;;;2.44;88.74;101789.63;4987358;28;45364;-81
2023/02/27 08:00:09;;;;;;;;;5.00;5.00;;;;;2.56;87.21;101806.16;4971371;28;45342;-81
2023/02/27 08:02:34;;;;;;;;;9.00;6.33;;;;;2.60;87.72;101801.19;4986240;28;45364;-81
2023/02/27 08:05:07;;;;;;;;;10.67;8.33;;;;;2.65;85.99;101808.47;4983151;28;46922;-83
2023/02/27 08:07:36;;;;;;;;;8.33;8.00;;;;;2.62;84.53;101806.53;4985799;28;45498;-82
2023/02/27 08:10:09;;;;;;;;;7.67;5.67;;;;;2.68;84.78;101820.06;4967194;28;46008;-83
2023/02/27 08:12:35;;;;;;;;;4.33;4.33;;;;;2.66;85.50;101807.63;4981760;28;45597;-81
2023/02/27 08:15:01;;;;;;;;;7.00;7.00;;;;;2.69;84.28;101826.22;4985877;28;45801;-82
2023/02/27 08:17:26;;;;;;;;;5.00;5.00;;;;;2.75;85.47;101813.50;4970052;28;45384;-84
2023/02/27 08:19:59;;;;;;;;;9.33;8.00;;;;;2.88;84.78;101817.78;4990751;28;45525;-83
2023/02/27 08:22:28;;;;;;;;;6.67;6.67;;;;;2.91;85.39;101805.75;4972505;28;44812;-82
2023/02/27 08:25:14;;;;;;;;;7.00;7.00;;;;;2.89;85.04;101786.34;4969253;28;46875;-82
2023/02/27 08:27:40;;;;;;;;;8.00;8.00;;;;;2.98;81.93;101818.44;4971140;28;45440;-83
2023/02/27 08:30:09;;;;;;;;;8.00;8.00;;;;;2.90;83.01;101777.63;4989674;28;45431;-83
2023/02/27 08:32:38;;;;;;;;;7.33;7.33;;;;;3.15;84.11;101803.72;4976233;28;45304;-82
2023/02/27 08:35:08;;;;;;;;;11.00;7.00;;;;;3.10;81.96;101776.25;4975452;28;45218;-83
2023/02/27 08:37:37;;;;;;;;;7.33;7.33;;;;;3.29;81.86;101801.94;4965927;28;44889;-82
2023/02/27 08:40:16;;;;;;;;;7.33;7.33;;;;;3.33;81.26;101817.09;4966463;28;45340;-82
2023/02/27 08:42:52;;;;;;;;;;;;;;;;;;;;;
2023/02/27 08:45:25;;;;;;;;;6.67;6.67;;;;;3.09;76.83;101781.41;4965275;28;75017;-83
2023/02/27 08:48:17;;;;;;;;;5.67;5.67;;;;;3.38;77.46;101815.63;4962422;28;45387;-83
2023/02/27 08:50:53;;;;;;;;;6.00;6.00;;;;;3.32;79.07;101815.25;4947459;28;45418;-81
2023/02/27 08:53:28;;;;;;;;;7.33;7.33;;;;;3.49;78.37;101828.50;4974491;28;45616;-82
2023/02/27 08:56:32;;;;;;;;;11.00;6.33;;;;;3.56;77.92;101833.34;4973310;28;45799;-83
2023/02/27 09:02:24;;;;;;;;;6.33;5.00;;;;;3.48;77.09;101808.31;4923431;28;44845;-82
2023/02/27 09:05:10;;;;;;;;;8.00;8.00;;;;;3.62;77.00;101819.66;4924521;28;45558;-83
2023/02/27 09:07:45;;;;;;;;;5.33;5.33;;;;;3.64;76.72;101823.28;4930986;28;45969;-83
2023/02/27 09:10:17;;;;;;;;;6.00;5.33;;;;;3.71;77.13;101799.13;4913734;28;45463;-85
2023/02/27 09:12:43;;;;;;;;;5.33;5.33;;;;;3.73;77.18;101790.50;4930874;28;45465;-83
2023/02/27 09:15:18;;;;;;;;;6.00;6.00;;;;;4.04;72.73;101837.06;4933968;28;44981;-83
2023/02/27 09:17:48;;;;;;;;;10.67;8.00;;;;;3.79;73.18;101779.44;4917536;28;45715;-83
2023/02/27 09:20:14;;;;;;;;;5.33;5.00;;;;;3.88;72.58;101786.94;4915150;28;44928;-83
2023/02/27 09:22:55;;;;;;;;;6.00;5.00;;;;;3.86;68.79;101785.94;4930729;28;47155;-82
2023/02/27 09:25:23;;;;;;;;;5.67;5.67;;;;;3.80;70.25;101784.78;4921082;28;45481;-82
2023/02/27 09:27:56;;;;;;;;;10.00;8.00;;;;;4.07;69.78;101831.94;4909602;29;46814;-83
2023/02/27 09:30:25;;;;;;;;;6.00;5.67;;;;;3.70;66.96;101787.72;4913748;28;45421;-84
2023/02/27 09:33:02;;;;;;;;;6.00;6.00;;;;;4.06;66.68;101835.41;4908090;28;46481;-82
2023/02/27 09:35:33;;;;;;;;;5.00;5.00;;;;;4.07;68.01;101836.31;4932577;28;44827;-83
2023/02/27 09:38:02;;;;;;;;;7.33;5.00;;;;;3.84;67.16;101791.16;4925947;28;45424;-85
2023/02/27 09:40:55;;;;;;;;;4.00;4.00;;;;;4.15;66.80;101825.41;4935642;28;45431;-84
2023/02/27 09:43:45;;;;;;;;;5.00;5.00;;;;;3.90;65.33;101788.88;4921994;28;45413;-82
2023/02/27 09:46:20;;;;;;;;;9.00;4.67;;;;;3.99;65.11;101799.91;4929960;28;45861;-83
2023/02/27 09:48:55;;;;;;;;;6.00;5.67;;;;;3.91;66.70;101792.41;4942025;28;46805;-82
2023/02/27 09:51:25;;;;;;;;;4.00;4.00;;;;;4.20;65.16;101834.47;4941833;28;45938;-82
2023/02/27 09:53:57;;;;;;;;;6.00;4.00;;;;;4.05;64.85;101803.72;4955254;28;45350;-83
2023/02/27 09:56:34;;;;;;;;;6.67;6.67;;;;;4.20;65.29;101807.22;4942504;28;44914;-83
2023/02/27 09:59:25;;;;;;;;;8.00;5.67;;;;;4.42;64.65;101835.69;4922930;28;46946;-83
2023/02/27 10:02:35;;;;;;;;;6.00;6.00;;;;;4.26;63.89;101822.47;4942100;28;45457;-83
2023/02/27 10:05:25;;;;;;;;;5.00;4.33;;;;;4.51;64.78;101836.22;4869361;29;46620;-82
2023/02/27 10:08:44;;;;;;;;;5.00;5.00;;;;;4.38;64.35;101803.03;4865185;29;44842;-83
2023/02/27 10:11:40;;;;;;;;;6.00;4.67;;;;;4.63;63.53;101832.47;4875386;29;45466;-82
2023/02/27 10:14:37;;;;;;;;;8.00;6.00;;;;;4.65;60.97;101841.34;4877649;29;45375;-82
2023/02/27 10:17:27;;;;;;;;;6.00;4.00;;;;;4.60;60.57;101798.91;4884778;29;45528;-82
2023/02/27 10:23:48;;;;;;;;;5.00;5.00;;;;;4.80;57.90;101829.00;5237070;23;45849;-83
2023/02/27 10:26:30;;;;;;;;;4.00;4.00;;;;;4.84;58.32;101825.72;4946758;28;45511;-82
2023/02/27 10:29:19;;;;;;;;;6.00;6.00;;;;;4.78;57.52;101841.19;4948271;28;44942;-82
2023/02/27 10:31:57;;;;;;;;;5.00;5.00;;;;;4.75;56.70;101809.41;4928636;28;45545;-84
2023/02/27 10:34:26;;;;;;;;;4.50;4.50;;;;;4.98;55.00;101847.56;4930141;28;45482;-84
2023/02/27 10:37:19;;;;;;;;;4.50;4.00;;;;;5.00;56.96;101832.72;4940980;28;45443;-83
2023/02/27 10:39:54;;;;;;;;;2.00;2.00;;;;;5.09;56.36;101832.31;4921360;28;45371;-84
2023/02/27 10:42:23;;;;;;;;;2.67;2.67;;;;;4.97;53.67;101815.03;4933292;28;45501;-83
2023/02/27 10:44:54;;;;;;;;;6.00;6.00;;;;;5.06;54.98;101826.91;4919151;28;45411;-83
2023/02/27 10:47:49;;;;;;;;;8.00;6.67;;;;;5.16;51.88;101840.66;4903294;28;44872;-82
2023/02/27 10:50:32;;;;;;;;;4.33;2.00;;;;;5.16;52.02;101835.38;4868397;29;45526;-84
2023/02/27 10:53:09;;;;;;;;;4.00;3.33;;;;;5.07;53.19;101819.06;4881974;29;45577;-82
2023/02/27 10:55:38;;;;;;;;;2.00;2.00;;;;;5.05;51.91;101814.50;4868121;29;45543;-84
2023/02/27 10:58:34;;;;;;;;;5.00;5.00;;;;;5.28;52.10;101829.84;4874842;29;45382;-83
2023/02/27 11:01:09;;;;;;;;;5.67;4.00;;;;;5.28;53.31;101819.28;4856734;29;45306;-86
2023/02/27 11:03:39;;;;;;;;;4.67;4.00;;;;;5.44;52.21;101830.66;4872228;29;45140;-85
2023/02/27 11:09:25;;;;;;;;;4.00;4.00;;;;;5.62;50.71;101839.53;4858077;29;45599;-85
2023/02/27 11:19:07;;;;;;;;;5.00;5.00;;;;;5.69;50.81;101825.81;4943661;28;45405;-85
2023/02/27 11:22:34;;;;;;;;;4.67;4.00;;;;;5.62;48.89;101789.41;4954930;28;44944;-87
2023/02/27 11:25:43;;;;;;;;;1.33;1.33;;;;;5.56;48.96;101794.34;4961181;23;46188;-85
2023/02/27 11:28:18;;;;;;;;;3.00;3.00;;;;;5.72;50.56;101811.88;4962042;28;44921;-84
2023/02/27 11:31:02;;;;;;;;;5.00;5.00;;;;;5.78;50.22;101813.09;4942194;28;45146;-83
2023/02/27 11:33:37;;;;;;;;;5.00;5.00;;;;;5.72;49.74;101801.31;4952425;28;44900;-84
2023/02/27 11:36:09;;;;;;;;;5.00;5.00;;;;;5.69;49.18;101783.56;4949212;28;44858;-84
2023/02/27 11:45:42;;;;;;;;;3.33;2.00;;;;;6.08;46.67;101790.81;5217161;23;47058;-84
2023/02/27 11:49:01;;;;;;;;;2.00;2.00;;;;;6.18;48.49;101796.63;4940839;28;44940;-83
2023/02/27 11:52:32;;;;;;;;;;;;;;;;;;;;;
2023/02/27 11:55:11;;;;;;;;;3.00;3.00;;;;;6.07;45.93;101766.13;4854858;29;75138;-84
2023/02/27 11:58:19;;;;;;;;;1.00;1.00;;;;;6.24;45.43;101781.91;4867298;29;45406;-85
2023/02/27 12:04:34;;;;;;;;;2.00;2.00;;;;;6.34;45.33;101771.88;4786535;29;45625;-84
2023/02/27 12:07:40;;;;;;;;;3.33;3.33;;;;;6.36;43.87;101777.19;4790716;29;45387;-85
2023/02/27 12:10:20;;;;;;;;;4.67;4.67;;;;;6.20;44.30;101744.78;4784281;29;45453;-83
2023/02/27 12:13:03;;;;;;;;;3.33;2.00;;;;;6.33;44.70;101766.50;4793145;29;45370;-83
2023/02/27 12:26:06;;;;;;;;;4.33;4.33;;;;;6.39;43.81;101772.06;4795672;29;45466;-85
2023/02/27 12:29:08;;;;;;;;;2.67;2.67;;;;;6.44;43.72;101753.78;4797800;29;45256;-86
2023/02/27 12:35:29;;;;;;;;;3.00;3.00;;;;;6.58;44.40;101757.97;4784658;29;45439;-84
2023/02/27 12:37:56;;;;;;;;;3.00;2.33;;;;;6.28;42.78;101699.31;4892522;29;45430;-84
2023/02/27 12:40:30;;;;;;;;;2.67;2.33;;;;;6.56;44.88;101726.22;4885016;29;46206;-84
2023/02/27 12:43:31;;;;;;;;;2.00;2.00;;;;;6.76;42.69;101739.41;4880363;29;45506;-84
2023/02/27 12:46:16;;;;;;;;;2.67;2.67;;;;;6.73;42.14;101734.00;4927558;28;45584;-83
2023/02/27 12:49:19;;;;;;;;;3.00;3.00;;;;;6.81;42.60;101741.44;4930922;28;45594;-84
2023/02/27 12:52:25;;;;;;;;;3.00;3.00;;;;;6.85;42.67;101750.44;4913416;28;45368;-84
2023/02/27 12:54:57;;;;;;;;;3.00;3.00;;;;;6.85;42.71;101729.28;4899462;28;46957;-85
2023/02/27 12:57:54;;;;;;;;;2.00;2.00;;;;;6.88;42.65;101726.75;4908296;29;45449;-83
2023/02/27 13:00:38;;;;;;;;;3.00;3.00;;;;;6.86;42.62;101712.56;4901710;28;45400;-83
2023/02/27 13:03:26;;;;;;;;;1.00;1.00;;;;;6.96;42.07;101704.19;4909487;28;44949;-84